Koslan, Russia
Current Conditions -  °F | °C
As of 5:00 PM on Friday 31 Oct 2014 (Local Time) from UUYY Reporting Station
Overcast Overcast  
Wind Chill: 32°   Ceiling: 1800
Heat Index: 37°   Visibility: 6mi
Dew Point: 30°   Wind: 7mph
Humidity: 75%   Direction: 240°WSW
Pressure: 29.74"   Gusts: NA
Location:  63.45°N, 48.9°E
Report Text: UUYY 311400Z 24003MPS 9999 BKN018 OVC066 03/M01 Q1007 NOSIG 1919//55 RMK QFE747/0996
Loading
Personal Weather Stations






























Interactive Weather Map
Tropical Storm Tracking
New forecast layout! Learn more

10-Day Weather Forecast

Advertisements
Track Severe Weather on mobile